sensor_id;sensor_type;location;lat;lon;timestamp;P1;durP1;ratioP1;P2;durP2;ratioP2
51602;SDS011;37954;51.980;5.850;2023-04-01T00:01:31;3.00;;;1.80;;
51602;SDS011;37954;51.980;5.850;2023-04-01T00:05:43;1.77;;;1.55;;
51602;SDS011;37954;51.980;5.850;2023-04-01T00:09:54;2.70;;;1.38;;
51602;SDS011;37954;51.980;5.850;2023-04-01T00:14:06;2.35;;;1.73;;
51602;SDS011;37954;51.980;5.850;2023-04-01T00:18:18;2.17;;;1.52;;
51602;SDS011;37954;51.980;5.850;2023-04-01T00:22:30;2.88;;;1.92;;
51602;SDS011;37954;51.980;5.850;2023-04-01T00:26:42;3.10;;;1.67;;
51602;SDS011;37954;51.980;5.850;2023-04-01T00:30:55;2.97;;;2.10;;
51602;SDS011;37954;51.980;5.850;2023-04-01T00:35:06;2.28;;;2.08;;
51602;SDS011;37954;51.980;5.850;2023-04-01T00:39:19;2.97;;;2.25;;
51602;SDS011;37954;51.980;5.850;2023-04-01T00:43:32;3.42;;;3.13;;
51602;SDS011;37954;51.980;5.850;2023-04-01T00:47:44;2.88;;;2.47;;
51602;SDS011;37954;51.980;5.850;2023-04-01T00:51:56;3.88;;;3.00;;
51602;SDS011;37954;51.980;5.850;2023-04-01T00:56:15;4.55;;;3.42;;
51602;SDS011;37954;51.980;5.850;2023-04-01T01:00:31;6.90;;;3.47;;
51602;SDS011;37954;51.980;5.850;2023-04-01T01:04:43;7.13;;;4.82;;
51602;SDS011;37954;51.980;5.850;2023-04-01T01:13:26;6.78;;;5.55;;
51602;SDS011;37954;51.980;5.850;2023-04-01T01:27:20;8.20;;;5.40;;
51602;SDS011;37954;51.980;5.850;2023-04-01T01:31:36;6.97;;;5.47;;
51602;SDS011;37954;51.980;5.850;2023-04-01T01:35:55;7.97;;;7.18;;
51602;SDS011;37954;51.980;5.850;2023-04-01T01:40:11;8.35;;;6.28;;
51602;SDS011;37954;51.980;5.850;2023-04-01T01:44:26;9.40;;;5.80;;
51602;SDS011;37954;51.980;5.850;2023-04-01T01:48:41;8.02;;;5.57;;
51602;SDS011;37954;51.980;5.850;2023-04-01T01:53:05;6.43;;;5.10;;
51602;SDS011;37954;51.980;5.850;2023-04-01T01:57:19;9.02;;;4.45;;
51602;SDS011;37954;51.980;5.850;2023-04-01T02:01:45;7.63;;;3.83;;
51602;SDS011;37954;51.980;5.850;2023-04-01T02:06:00;8.10;;;4.30;;
51602;SDS011;37954;51.980;5.850;2023-04-01T02:10:14;7.97;;;5.15;;
51602;SDS011;37954;51.980;5.850;2023-04-01T02:14:27;12.20;;;5.10;;
51602;SDS011;37954;51.980;5.850;2023-04-01T02:18:48;10.38;;;4.03;;
51602;SDS011;37954;51.980;5.850;2023-04-01T02:23:02;10.23;;;4.07;;
51602;SDS011;37954;51.980;5.850;2023-04-01T02:27:15;8.60;;;3.53;;
51602;SDS011;37954;51.980;5.850;2023-04-01T02:31:27;8.65;;;3.42;;
51602;SDS011;37954;51.980;5.850;2023-04-01T02:35:40;7.45;;;3.47;;
51602;SDS011;37954;51.980;5.850;2023-04-01T02:39:51;8.02;;;3.30;;
51602;SDS011;37954;51.980;5.850;2023-04-01T02:44:03;7.18;;;3.00;;
51602;SDS011;37954;51.980;5.850;2023-04-01T02:48:15;5.90;;;2.95;;
51602;SDS011;37954;51.980;5.850;2023-04-01T02:52:27;5.88;;;3.10;;
51602;SDS011;37954;51.980;5.850;2023-04-01T02:56:43;7.82;;;3.88;;
51602;SDS011;37954;51.980;5.850;2023-04-01T03:00:55;4.38;;;2.60;;
51602;SDS011;37954;51.980;5.850;2023-04-01T03:05:06;4.72;;;2.70;;
51602;SDS011;37954;51.980;5.850;2023-04-01T03:09:18;5.80;;;3.20;;
51602;SDS011;37954;51.980;5.850;2023-04-01T03:13:30;3.80;;;3.00;;
51602;SDS011;37954;51.980;5.850;2023-04-01T03:17:43;4.90;;;3.33;;
51602;SDS011;37954;51.980;5.850;2023-04-01T03:21:55;4.30;;;3.40;;
51602;SDS011;37954;51.980;5.850;2023-04-01T03:26:07;5.13;;;3.50;;
51602;SDS011;37954;51.980;5.850;2023-04-01T03:30:19;6.35;;;3.35;;
51602;SDS011;37954;51.980;5.850;2023-04-01T03:34:34;3.65;;;3.15;;
51602;SDS011;37954;51.980;5.850;2023-04-01T03:38:46;6.30;;;3.58;;
51602;SDS011;37954;51.980;5.850;2023-04-01T03:43:03;5.18;;;3.22;;
51602;SDS011;37954;51.980;5.850;2023-04-01T03:47:21;4.65;;;3.75;;
51602;SDS011;37954;51.980;5.850;2023-04-01T03:51:32;4.65;;;3.70;;
51602;SDS011;37954;51.980;5.850;2023-04-01T03:55:44;6.15;;;4.00;;
51602;SDS011;37954;51.980;5.850;2023-04-01T03:59:56;4.43;;;3.72;;
51602;SDS011;37954;51.980;5.850;2023-04-01T04:04:10;5.28;;;3.80;;
51602;SDS011;37954;51.980;5.850;2023-04-01T04:08:24;7.20;;;3.97;;
51602;SDS011;37954;51.980;5.850;2023-04-01T04:12:35;5.93;;;4.00;;
51602;SDS011;37954;51.980;5.850;2023-04-01T04:16:47;5.70;;;3.95;;
51602;SDS011;37954;51.980;5.850;2023-04-01T04:20:59;5.78;;;3.83;;
51602;SDS011;37954;51.980;5.850;2023-04-01T04:25:11;5.95;;;4.32;;
51602;SDS011;37954;51.980;5.850;2023-04-01T04:29:23;5.00;;;4.18;;
51602;SDS011;37954;51.980;5.850;2023-04-01T04:33:35;5.43;;;4.05;;
51602;SDS011;37954;51.980;5.850;2023-04-01T04:37:47;4.57;;;3.75;;
51602;SDS011;37954;51.980;5.850;2023-04-01T04:42:06;8.05;;;4.32;;
51602;SDS011;37954;51.980;5.850;2023-04-01T04:46:18;6.13;;;4.00;;
51602;SDS011;37954;51.980;5.850;2023-04-01T04:50:35;6.60;;;4.68;;
51602;SDS011;37954;51.980;5.850;2023-04-01T04:54:46;5.82;;;4.53;;
51602;SDS011;37954;51.980;5.850;2023-04-01T04:58:58;5.75;;;4.68;;
51602;SDS011;37954;51.980;5.850;2023-04-01T05:03:22;6.93;;;5.18;;
51602;SDS011;37954;51.980;5.850;2023-04-01T05:07:35;8.05;;;5.07;;
51602;SDS011;37954;51.980;5.850;2023-04-01T05:11:46;6.72;;;4.90;;
51602;SDS011;37954;51.980;5.850;2023-04-01T05:15:58;6.80;;;4.93;;
51602;SDS011;37954;51.980;5.850;2023-04-01T05:20:11;5.50;;;4.65;;
51602;SDS011;37954;51.980;5.850;2023-04-01T05:24:23;6.10;;;4.88;;
51602;SDS011;37954;51.980;5.850;2023-04-01T05:28:35;5.07;;;4.53;;
51602;SDS011;37954;51.980;5.850;2023-04-01T05:32:48;4.90;;;3.67;;
51602;SDS011;37954;51.980;5.850;2023-04-01T05:37:01;4.55;;;3.90;;
51602;SDS011;37954;51.980;5.850;2023-04-01T05:41:13;6.28;;;3.30;;
51602;SDS011;37954;51.980;5.850;2023-04-01T05:45:29;3.17;;;2.88;;
51602;SDS011;37954;51.980;5.850;2023-04-01T05:50:04;3.97;;;3.30;;
51602;SDS011;37954;51.980;5.850;2023-04-01T05:54:16;4.40;;;3.22;;
51602;SDS011;37954;51.980;5.850;2023-04-01T05:58:29;5.93;;;4.10;;
51602;SDS011;37954;51.980;5.850;2023-04-01T06:02:41;5.20;;;4.00;;
51602;SDS011;37954;51.980;5.850;2023-04-01T06:06:54;8.27;;;4.63;;
51602;SDS011;37954;51.980;5.850;2023-04-01T06:35:08;9.02;;;5.38;;
51602;SDS011;37954;51.980;5.850;2023-04-01T06:58:24;4.80;;;3.33;;
51602;SDS011;37954;51.980;5.850;2023-04-01T07:02:39;4.53;;;2.90;;
51602;SDS011;37954;51.980;5.850;2023-04-01T07:11:49;2.97;;;2.60;;
51602;SDS011;37954;51.980;5.850;2023-04-01T07:20:59;3.22;;;2.25;;
51602;SDS011;37954;51.980;5.850;2023-04-01T07:25:14;3.03;;;2.20;;
51602;SDS011;37954;51.980;5.850;2023-04-01T07:29:36;3.05;;;2.60;;
51602;SDS011;37954;51.980;5.850;2023-04-01T07:43:11;3.45;;;2.67;;
51602;SDS011;37954;51.980;5.850;2023-04-01T07:48:09;2.38;;;1.55;;
51602;SDS011;37954;51.980;5.850;2023-04-01T07:52:36;2.10;;;1.90;;
51602;SDS011;37954;51.980;5.850;2023-04-01T07:57:08;4.10;;;3.17;;
51602;SDS011;37954;51.980;5.850;2023-04-01T08:01:35;3.55;;;3.00;;
51602;SDS011;37954;51.980;5.850;2023-04-01T08:06:12;2.40;;;2.20;;
51602;SDS011;37954;51.980;5.850;2023-04-01T08:10:44;5.35;;;3.95;;
51602;SDS011;37954;51.980;5.850;2023-04-01T08:20:14;1.60;;;1.50;;
51602;SDS011;37954;51.980;5.850;2023-04-01T08:33:34;0.82;;;0.82;;
51602;SDS011;37954;51.980;5.850;2023-04-01T08:37:55;1.13;;;0.80;;
51602;SDS011;37954;51.980;5.850;2023-04-01T08:42:31;0.98;;;0.80;;
51602;SDS011;37954;51.980;5.850;2023-04-01T08:51:52;2.67;;;1.10;;
51602;SDS011;37954;51.980;5.850;2023-04-01T08:56:33;1.30;;;1.20;;
51602;SDS011;37954;51.980;5.850;2023-04-01T09:00:53;1.27;;;1.10;;
51602;SDS011;37954;51.980;5.850;2023-04-01T09:43:00;1.92;;;1.63;;
51602;SDS011;37954;51.980;5.850;2023-04-01T09:47:46;1.90;;;1.70;;
51602;SDS011;37954;51.980;5.850;2023-04-01T09:52:38;2.30;;;1.80;;
51602;SDS011;37954;51.980;5.850;2023-04-01T09:57:34;1.98;;;1.70;;
51602;SDS011;37954;51.980;5.850;2023-04-01T10:12:09;2.75;;;2.15;;
51602;SDS011;37954;51.980;5.850;2023-04-01T10:35:23;4.38;;;3.38;;
51602;SDS011;37954;51.980;5.850;2023-04-01T10:44:52;5.03;;;4.07;;
51602;SDS011;37954;51.980;5.850;2023-04-01T11:14:35;7.28;;;5.90;;
51602;SDS011;37954;51.980;5.850;2023-04-01T11:19:27;6.95;;;5.07;;
51602;SDS011;37954;51.980;5.850;2023-04-01T11:28:24;4.45;;;3.72;;
51602;SDS011;37954;51.980;5.850;2023-04-01T11:37:23;2.22;;;1.58;;
51602;SDS011;37954;51.980;5.850;2023-04-01T11:47:19;2.10;;;1.80;;
51602;SDS011;37954;51.980;5.850;2023-04-01T11:51:58;1.85;;;1.65;;
51602;SDS011;37954;51.980;5.850;2023-04-01T11:57:05;1.67;;;1.42;;
51602;SDS011;37954;51.980;5.850;2023-04-01T12:05:48;1.92;;;1.70;;
51602;SDS011;37954;51.980;5.850;2023-04-01T12:18:56;1.48;;;1.35;;
51602;SDS011;37954;51.980;5.850;2023-04-01T12:27:53;1.70;;;1.60;;
51602;SDS011;37954;51.980;5.850;2023-04-01T12:41:45;2.10;;;1.80;;
51602;SDS011;37954;51.980;5.850;2023-04-01T13:04:56;3.38;;;2.58;;
51602;SDS011;37954;51.980;5.850;2023-04-01T13:27:51;2.15;;;1.95;;
51602;SDS011;37954;51.980;5.850;2023-04-01T13:41:43;2.30;;;2.00;;
51602;SDS011;37954;51.980;5.850;2023-04-01T13:50:17;3.05;;;1.80;;
51602;SDS011;37954;51.980;5.850;2023-04-01T13:59:25;2.08;;;1.88;;
51602;SDS011;37954;51.980;5.850;2023-04-01T14:12:50;1.80;;;1.65;;
51602;SDS011;37954;51.980;5.850;2023-04-01T14:17:17;1.55;;;1.45;;
51602;SDS011;37954;51.980;5.850;2023-04-01T14:26:29;1.65;;;1.55;;
51602;SDS011;37954;51.980;5.850;2023-04-01T14:30:46;1.80;;;1.60;;
51602;SDS011;37954;51.980;5.850;2023-04-01T14:35:32;1.67;;;1.55;;
51602;SDS011;37954;51.980;5.850;2023-04-01T14:49:35;1.70;;;1.60;;
51602;SDS011;37954;51.980;5.850;2023-04-01T14:54:32;1.73;;;1.63;;
51602;SDS011;37954;51.980;5.850;2023-04-01T15:02:57;2.22;;;2.03;;
51602;SDS011;37954;51.980;5.850;2023-04-01T15:16:41;1.77;;;1.67;;
51602;SDS011;37954;51.980;5.850;2023-04-01T15:25:43;2.30;;;2.10;;
51602;SDS011;37954;51.980;5.850;2023-04-01T15:39:00;2.67;;;2.10;;
51602;SDS011;37954;51.980;5.850;2023-04-01T15:43:32;2.70;;;2.50;;
51602;SDS011;37954;51.980;5.850;2023-04-01T15:48:01;2.75;;;2.33;;
51602;SDS011;37954;51.980;5.850;2023-04-01T16:15:04;2.13;;;1.95;;
51602;SDS011;37954;51.980;5.850;2023-04-01T16:24:22;5.18;;;2.95;;
51602;SDS011;37954;51.980;5.850;2023-04-01T16:33:17;3.75;;;2.40;;
51602;SDS011;37954;51.980;5.850;2023-04-01T16:41:49;2.42;;;2.22;;
51602;SDS011;37954;51.980;5.850;2023-04-01T16:51:16;2.85;;;2.65;;
51602;SDS011;37954;51.980;5.850;2023-04-01T16:55:34;3.15;;;2.72;;
51602;SDS011;37954;51.980;5.850;2023-04-01T17:05:00;3.22;;;2.47;;
51602;SDS011;37954;51.980;5.850;2023-04-01T17:10:06;3.40;;;2.40;;
51602;SDS011;37954;51.980;5.850;2023-04-01T17:37:12;3.33;;;3.03;;
51602;SDS011;37954;51.980;5.850;2023-04-01T17:41:48;2.88;;;2.47;;
51602;SDS011;37954;51.980;5.850;2023-04-01T17:50:49;3.67;;;3.03;;
51602;SDS011;37954;51.980;5.850;2023-04-01T18:00:00;4.07;;;3.25;;
51602;SDS011;37954;51.980;5.850;2023-04-01T18:04:48;3.42;;;2.70;;
51602;SDS011;37954;51.980;5.850;2023-04-01T18:09:29;3.05;;;2.72;;
51602;SDS011;37954;51.980;5.850;2023-04-01T18:23:18;3.33;;;2.83;;
51602;SDS011;37954;51.980;5.850;2023-04-01T18:27:50;3.20;;;2.90;;
51602;SDS011;37954;51.980;5.850;2023-04-01T18:32:08;3.20;;;2.90;;
51602;SDS011;37954;51.980;5.850;2023-04-01T18:41:13;4.30;;;3.90;;
51602;SDS011;37954;51.980;5.850;2023-04-01T18:45:33;5.30;;;4.10;;
51602;SDS011;37954;51.980;5.850;2023-04-01T18:49:54;4.43;;;3.78;;
51602;SDS011;37954;51.980;5.850;2023-04-01T18:54:27;4.18;;;3.78;;
51602;SDS011;37954;51.980;5.850;2023-04-01T19:03:23;4.65;;;4.03;;
51602;SDS011;37954;51.980;5.850;2023-04-01T19:07:42;4.07;;;3.67;;
51602;SDS011;37954;51.980;5.850;2023-04-01T19:34:44;4.35;;;3.95;;
51602;SDS011;37954;51.980;5.850;2023-04-01T19:39:25;4.33;;;3.93;;
51602;SDS011;37954;51.980;5.850;2023-04-01T19:49:09;4.57;;;4.18;;
51602;SDS011;37954;51.980;5.850;2023-04-01T19:58:20;4.40;;;3.77;;
51602;SDS011;37954;51.980;5.850;2023-04-01T20:02:38;4.90;;;3.67;;
51602;SDS011;37954;51.980;5.850;2023-04-01T20:07:14;4.67;;;4.27;;
51602;SDS011;37954;51.980;5.850;2023-04-01T20:16:11;4.70;;;4.20;;
51602;SDS011;37954;51.980;5.850;2023-04-01T20:20:27;4.70;;;4.00;;
51602;SDS011;37954;51.980;5.850;2023-04-01T20:24:41;4.90;;;4.40;;
51602;SDS011;37954;51.980;5.850;2023-04-01T21:08:24;6.03;;;5.43;;
51602;SDS011;37954;51.980;5.850;2023-04-01T21:12:43;6.20;;;5.60;;
51602;SDS011;37954;51.980;5.850;2023-04-01T21:17:16;7.47;;;5.80;;
51602;SDS011;37954;51.980;5.850;2023-04-01T21:26:19;6.83;;;5.53;;
51602;SDS011;37954;51.980;5.850;2023-04-01T22:06:25;6.13;;;4.83;;
51602;SDS011;37954;51.980;5.850;2023-04-01T22:15:48;5.63;;;4.30;;
51602;SDS011;37954;51.980;5.850;2023-04-01T22:29:14;5.27;;;4.70;;
51602;SDS011;37954;51.980;5.850;2023-04-01T22:33:38;6.53;;;4.60;;
51602;SDS011;37954;51.980;5.850;2023-04-01T22:38:14;6.73;;;4.70;;
51602;SDS011;37954;51.980;5.850;2023-04-01T22:42:43;4.50;;;4.10;;
51602;SDS011;37954;51.980;5.850;2023-04-01T22:51:45;5.60;;;4.57;;
51602;SDS011;37954;51.980;5.850;2023-04-01T22:56:09;4.00;;;3.60;;
51602;SDS011;37954;51.980;5.850;2023-04-01T23:00:27;4.87;;;4.37;;
51602;SDS011;37954;51.980;5.850;2023-04-01T23:04:48;6.37;;;4.53;;
51602;SDS011;37954;51.980;5.850;2023-04-01T23:13:29;5.93;;;4.93;;
51602;SDS011;37954;51.980;5.850;2023-04-01T23:17:58;8.63;;;5.37;;
51602;SDS011;37954;51.980;5.850;2023-04-01T23:27:16;7.00;;;5.77;;
51602;SDS011;37954;51.980;5.850;2023-04-01T23:31:39;6.90;;;5.87;;
51602;SDS011;37954;51.980;5.850;2023-04-01T23:35:54;6.33;;;5.60;;
51602;SDS011;37954;51.980;5.850;2023-04-01T23:40:16;7.67;;;6.10;;
51602;SDS011;37954;51.980;5.850;2023-04-01T23:44:28;7.37;;;6.50;;
51602;SDS011;37954;51.980;5.850;2023-04-01T23:48:44;6.43;;;5.00;;
51602;SDS011;37954;51.980;5.850;2023-04-01T23:53:11;5.70;;;4.80;;
51602;SDS011;37954;51.980;5.850;2023-04-01T23:57:29;6.40;;;4.70;;
